createdAt,value
2019-02-23T00:02:10.550Z,102329.17
2019-02-23T00:04:40.373Z,102334.70
2019-02-23T00:07:10.329Z,102333.69
2019-02-23T00:09:40.584Z,102332.81
2019-02-23T00:12:10.250Z,102324.81
2019-02-23T00:14:39.491Z,102324.17
2019-02-23T00:17:09.049Z,102331.28
2019-02-23T00:19:38.279Z,102318.22
2019-02-23T00:22:08.170Z,102325.44
2019-02-23T00:24:38.476Z,102331.00
2019-02-23T00:27:07.734Z,102338.39
2019-02-23T00:29:36.996Z,102336.74
2019-02-23T00:32:06.255Z,102342.13
2019-02-23T00:34:35.888Z,102339.30
2019-02-23T00:37:05.751Z,102344.48
2019-02-23T00:39:35.931Z,102346.96
2019-02-23T00:42:05.543Z,102347.42
2019-02-23T00:44:34.768Z,102342.20
2019-02-23T00:47:04.348Z,102337.11
2019-02-23T00:52:11.324Z,102341.52
2019-02-23T00:54:42.251Z,102340.33
2019-02-23T00:57:12.336Z,102338.98
2019-02-23T00:59:42.050Z,102342.73
2019-02-23T01:02:12.151Z,102340.77
2019-02-23T01:04:43.035Z,102335.05
2019-02-23T01:07:12.560Z,102333.34
2019-02-23T01:09:42.091Z,102336.03
2019-02-23T01:12:12.363Z,102336.70
2019-02-23T01:14:41.933Z,102330.31
2019-02-23T01:17:11.833Z,102328.14
2019-02-23T01:19:47.732Z,102325.34
2019-02-23T01:22:12.616Z,102327.00
2019-02-23T01:24:42.494Z,102326.70
2019-02-23T01:27:12.042Z,102323.16
2019-02-23T01:29:41.278Z,102325.95
2019-02-23T01:32:11.497Z,102323.91
2019-02-23T01:34:59.716Z,102319.51
2019-02-23T01:37:29.410Z,102322.05
2019-02-23T01:39:59.084Z,102312.13
2019-02-23T01:42:28.622Z,102313.08
2019-02-23T01:44:58.172Z,102313.61
2019-02-23T01:47:28.051Z,102303.19
2019-02-23T01:49:59.222Z,102304.04
2019-02-23T01:52:30.927Z,102300.02
2019-02-23T01:55:00.876Z,102295.98
2019-02-23T01:57:30.368Z,102295.12
2019-02-23T01:59:59.914Z,102294.13
2019-02-23T02:02:29.547Z,102292.41
2019-02-23T02:04:59.121Z,102296.25
2019-02-23T02:07:28.627Z,102307.30
2019-02-23T02:09:58.753Z,102310.31
2019-02-23T02:12:28.016Z,102303.72
2019-02-23T02:14:57.623Z,102305.72
2019-02-23T02:17:26.999Z,102305.31
2019-02-23T02:19:57.162Z,102303.48
2019-02-23T02:22:27.294Z,102301.09
2019-02-23T02:24:56.864Z,102290.36
2019-02-23T02:27:28.240Z,102295.41
2019-02-23T02:29:58.281Z,102294.00
2019-02-23T02:32:27.746Z,102294.66
2019-02-23T02:34:57.655Z,102293.68
2019-02-23T02:37:27.176Z,102293.12
2019-02-23T02:39:57.450Z,102291.57
2019-02-23T02:42:26.705Z,102297.46
2019-02-23T02:44:56.773Z,102304.30
2019-02-23T02:47:25.990Z,102302.93
2019-02-23T02:49:55.810Z,102299.66
2019-02-23T02:52:25.660Z,102294.30
2019-02-23T02:54:55.527Z,102294.96
2019-02-23T02:57:25.270Z,102291.39
2019-02-23T02:59:55.128Z,102287.64
2019-02-23T03:02:24.358Z,102278.59
2019-02-23T03:04:53.880Z,102287.31
2019-02-23T03:07:23.651Z,102280.61
2019-02-23T03:09:52.881Z,102281.98
2019-02-23T03:12:22.692Z,102282.95
2019-02-23T03:14:51.939Z,102276.05
2019-02-23T03:17:21.427Z,102268.88
2019-02-23T03:19:51.200Z,102276.11
2019-02-23T03:22:20.790Z,102274.98
2019-02-23T03:24:50.300Z,102276.35
2019-02-23T03:27:20.155Z,102272.73
2019-02-23T03:29:49.738Z,102269.56
2019-02-23T03:32:19.790Z,102273.56
2019-02-23T03:34:49.559Z,102276.92
2019-02-23T03:37:19.056Z,102278.92
2019-02-23T03:39:48.958Z,102275.20
2019-02-23T03:42:18.871Z,102277.50
2019-02-23T03:44:48.099Z,102281.66
2019-02-23T03:47:17.891Z,102280.63
2019-02-23T03:49:47.105Z,102284.16
2019-02-23T03:52:16.921Z,102290.14
2019-02-23T03:54:46.126Z,102296.85
2019-02-23T03:57:15.660Z,102296.00
2019-02-23T03:59:45.637Z,102296.16
2019-02-23T04:02:15.123Z,102303.53
2019-02-23T04:04:44.635Z,102299.77
2019-02-23T04:07:14.478Z,102305.79
2019-02-23T04:09:43.967Z,102306.61
2019-02-23T04:12:13.478Z,102308.77
2019-02-23T04:14:42.725Z,102307.42
2019-02-23T04:17:11.980Z,102308.80
2019-02-23T04:19:41.194Z,102313.83
2019-02-23T04:22:10.716Z,102311.16
2019-02-23T04:24:40.238Z,102306.11
2019-02-23T04:27:10.065Z,102304.80
2019-02-23T04:29:39.800Z,102311.70
2019-02-23T04:32:09.320Z,102311.90
2019-02-23T04:34:38.808Z,102307.09
2019-02-23T04:37:08.280Z,102311.86
2019-02-23T04:39:38.003Z,102309.06
2019-02-23T04:42:07.278Z,102314.78
2019-02-23T04:44:36.806Z,102312.48
2019-02-23T04:47:06.025Z,102316.56
2019-02-23T04:49:35.500Z,102324.67
2019-02-23T04:52:05.351Z,102318.97
2019-02-23T04:57:47.925Z,102321.70
2019-02-23T05:00:17.456Z,102324.41
2019-02-23T05:02:46.951Z,102332.80
2019-02-23T05:05:16.482Z,102334.41
2019-02-23T05:07:46.249Z,102336.94
2019-02-23T05:10:15.710Z,102334.39
2019-02-23T05:12:44.953Z,102335.75
2019-02-23T05:15:14.158Z,102337.81
2019-02-23T05:17:43.444Z,102339.18
2019-02-23T05:20:12.605Z,102340.73
2019-02-23T05:22:42.414Z,102345.25
2019-02-23T05:25:11.903Z,102340.56
2019-02-23T05:30:18.702Z,102346.43
2019-02-23T05:32:48.820Z,102356.30
2019-02-23T05:38:26.627Z,102356.65
2019-02-23T05:40:56.682Z,102364.06
2019-02-23T05:43:26.562Z,102358.84
2019-02-23T05:45:56.386Z,102354.70
2019-02-23T05:48:25.615Z,102356.56
2019-02-23T05:50:54.842Z,102356.03
2019-02-23T05:53:25.049Z,102351.03
2019-02-23T05:55:54.266Z,102353.13
2019-02-23T05:58:24.095Z,102360.05
2019-02-23T06:00:53.286Z,102355.36
2019-02-23T06:03:22.820Z,102358.70
2019-02-23T06:05:52.354Z,102357.52
2019-02-23T06:08:21.547Z,102351.14
2019-02-23T06:10:51.057Z,102352.33
2019-02-23T06:13:20.289Z,102349.05
2019-02-23T06:15:50.209Z,102343.39
2019-02-23T06:18:19.503Z,102343.59
2019-02-23T06:20:49.050Z,102349.64
2019-02-23T06:23:18.563Z,102337.88
2019-02-23T06:25:47.856Z,102338.05
2019-02-23T06:28:17.420Z,102341.98
2019-02-23T06:30:47.326Z,102342.48
2019-02-23T06:33:16.834Z,102342.95
2019-02-23T06:35:46.467Z,102349.48
2019-02-23T06:38:16.189Z,102346.31
2019-02-23T06:40:46.100Z,102346.30
2019-02-23T06:43:15.748Z,102351.17
2019-02-23T06:45:45.770Z,102352.35
2019-02-23T06:48:15.554Z,102341.30
2019-02-23T06:50:44.934Z,102348.39
2019-02-23T06:53:14.815Z,102350.11
2019-02-23T06:55:44.599Z,102349.95
2019-02-23T06:58:14.807Z,102342.91
2019-02-23T07:00:44.898Z,102343.77
2019-02-23T07:03:14.925Z,102341.27
2019-02-23T07:05:45.993Z,102334.72
2019-02-23T07:08:16.001Z,102331.18
2019-02-23T07:10:48.161Z,102325.67
2019-02-23T07:16:10.796Z,102313.73
2019-02-23T07:18:40.445Z,102304.50
2019-02-23T07:21:10.730Z,102297.60
2019-02-23T07:23:40.337Z,102290.70
2019-02-23T07:26:09.907Z,102284.15
2019-02-23T07:28:40.269Z,102276.25
2019-02-23T07:31:10.167Z,102268.18
2019-02-23T07:33:40.137Z,102257.41
2019-02-23T07:36:09.370Z,102243.64
2019-02-23T07:38:38.975Z,102241.61
2019-02-23T07:41:47.877Z,102243.45
2019-02-23T07:44:25.226Z,102243.66
2019-02-23T07:46:55.161Z,102231.20
2019-02-23T07:49:43.647Z,102225.15
2019-02-23T07:52:13.194Z,102209.17
2019-02-23T07:54:44.896Z,102211.19
2019-02-23T07:57:14.607Z,102213.20
2019-02-23T07:59:47.060Z,102216.36
2019-02-23T08:02:16.711Z,102212.30
2019-02-23T08:04:46.268Z,102209.11
2019-02-23T08:07:15.533Z,102204.54
2019-02-23T08:09:46.366Z,102202.86
2019-02-23T08:12:16.248Z,102197.20
2019-02-23T08:14:45.896Z,102193.46
2019-02-23T08:17:15.286Z,102195.14
2019-02-23T08:19:45.106Z,102191.97
2019-02-23T08:22:14.942Z,102180.74
2019-02-23T08:24:45.069Z,102172.13
2019-02-23T08:27:14.383Z,102177.34
2019-02-23T08:29:44.067Z,102173.80
2019-02-23T08:35:03.343Z,102165.16
2019-02-23T08:37:33.652Z,102159.46
2019-02-23T08:40:03.371Z,102157.39
2019-02-23T08:42:32.751Z,102145.64
2019-02-23T08:45:02.641Z,102142.55
2019-02-23T08:47:33.048Z,102136.00
2019-02-23T08:50:02.680Z,102139.10
2019-02-23T08:52:32.440Z,102141.30
2019-02-23T08:55:01.714Z,102140.98
2019-02-23T08:57:30.955Z,102136.25
2019-02-23T09:00:00.895Z,102134.22
2019-02-23T09:02:30.456Z,102137.92
2019-02-23T09:05:00.342Z,102130.66
2019-02-23T09:07:30.672Z,102135.86
2019-02-23T09:10:00.676Z,102146.94
2019-02-23T09:12:30.702Z,102148.91
2019-02-23T09:15:00.904Z,102145.38
2019-02-23T09:18:09.873Z,102139.91
2019-02-23T09:20:40.223Z,102131.64
2019-02-23T09:23:10.312Z,102128.08
2019-02-23T09:25:39.990Z,102125.72
2019-02-23T09:28:09.800Z,102125.84
2019-02-23T09:30:39.973Z,102127.20
2019-02-23T09:33:09.520Z,102123.50
2019-02-23T09:35:39.264Z,102083.23
2019-02-23T09:38:08.806Z,102128.54
2019-02-23T09:40:38.590Z,102139.95
2019-02-23T09:43:08.845Z,102143.95
2019-02-23T09:45:39.087Z,102143.23
2019-02-23T09:48:09.349Z,102145.89
2019-02-23T09:50:38.940Z,102137.08
2019-02-23T09:53:11.528Z,102139.39
2019-02-23T09:55:40.437Z,102137.95
2019-02-23T09:58:09.972Z,102139.22
2019-02-23T10:00:40.086Z,102131.77
2019-02-23T10:03:28.557Z,102132.19
2019-02-23T10:08:52.725Z,102140.38
2019-02-23T10:13:57.369Z,102148.34
2019-02-23T10:16:27.182Z,102158.23
2019-02-23T10:18:57.054Z,102168.08
2019-02-23T10:21:26.301Z,102167.03
2019-02-23T10:23:55.580Z,102166.53
2019-02-23T10:26:25.549Z,102167.88
2019-02-23T10:28:55.138Z,102166.38
2019-02-23T10:31:24.762Z,102172.08
2019-02-23T10:33:54.335Z,102173.16
2019-02-23T10:36:24.286Z,102166.69
2019-02-23T10:38:54.077Z,102167.77
2019-02-23T10:41:23.677Z,102172.61
2019-02-23T10:43:52.981Z,102168.50
2019-02-23T10:46:22.492Z,102174.83
2019-02-23T10:48:52.238Z,102164.72
2019-02-23T10:51:21.779Z,102164.57
2019-02-23T10:53:51.000Z,102159.68
2019-02-23T10:56:20.567Z,102169.65
2019-02-23T10:58:49.818Z,102164.70
2019-02-23T11:01:19.813Z,102163.36
2019-02-23T11:03:49.327Z,102169.75
2019-02-23T11:06:19.221Z,102168.14
2019-02-23T11:08:48.813Z,102165.77
2019-02-23T11:11:20.449Z,102171.69
2019-02-23T11:13:50.682Z,102172.40
2019-02-23T11:16:20.390Z,102167.52
2019-02-23T11:18:49.898Z,102177.77
2019-02-23T11:21:19.849Z,102189.61
2019-02-23T11:23:49.498Z,102186.39
2019-02-23T11:26:19.388Z,102192.08
2019-02-23T11:28:48.990Z,102189.02
2019-02-23T11:31:19.018Z,102196.23
2019-02-23T11:33:48.139Z,102188.81
2019-02-23T11:36:17.459Z,102198.59
2019-02-23T11:38:46.679Z,102205.72
2019-02-23T11:56:36.131Z,102215.11
2019-02-23T12:12:01.746Z,102196.66
2019-02-23T12:14:49.898Z,102200.94
2019-02-23T12:26:20.833Z,102202.50
2019-02-23T12:29:12.815Z,102199.26
2019-02-23T12:43:20.422Z,102181.81
2019-02-23T12:45:50.590Z,102175.59
2019-02-23T12:48:20.283Z,102177.22
2019-02-23T12:50:50.055Z,102169.87
2019-02-23T12:53:19.972Z,102170.11
2019-02-23T12:58:38.413Z,102172.30
2019-02-23T13:01:07.693Z,102157.16
2019-02-23T13:03:37.372Z,102161.62
2019-02-23T13:06:07.106Z,102154.31
2019-02-23T13:09:14.458Z,102158.05
2019-02-23T13:12:05.293Z,102155.83
2019-02-23T13:15:05.111Z,102164.64
2019-02-23T13:18:05.102Z,102161.36
2019-02-23T13:21:16.522Z,102164.69
2019-02-23T13:24:28.197Z,102166.61
2019-02-23T13:27:12.234Z,102163.05
2019-02-23T13:33:15.205Z,102169.61
2019-02-23T13:36:12.822Z,102167.45
2019-02-23T13:39:21.173Z,102162.90
2019-02-23T13:42:22.155Z,102160.55
2019-02-23T13:45:14.705Z,102157.39
2019-02-23T13:48:22.232Z,102161.05
2019-02-23T13:51:29.776Z,102159.41
2019-02-23T13:54:39.149Z,102160.23
2019-02-23T13:57:47.273Z,102164.46
2019-02-23T14:00:54.795Z,102158.77
2019-02-23T14:04:02.600Z,102164.64
2019-02-23T14:06:53.970Z,102174.61
2019-02-23T14:10:01.309Z,102179.30
2019-02-23T14:12:57.630Z,102182.95
2019-02-23T14:18:36.003Z,102175.50
2019-02-23T14:21:37.741Z,102173.59
2019-02-23T14:27:42.135Z,102170.28
2019-02-23T14:30:49.548Z,102174.75
2019-02-23T14:33:57.107Z,102185.41
2019-02-23T14:37:04.404Z,102163.88
2019-02-23T14:40:02.713Z,102181.83
2019-02-23T14:43:11.996Z,102184.96
2019-02-23T14:46:20.879Z,102182.23
2019-02-23T14:49:28.544Z,102191.83
2019-02-23T14:52:22.546Z,102180.11
2019-02-23T14:55:14.254Z,102188.30
2019-02-23T14:58:22.953Z,102187.45
2019-02-23T15:01:30.450Z,102183.98
2019-02-23T15:04:37.796Z,102184.25
2019-02-23T15:07:46.220Z,102180.89
2019-02-23T15:19:46.275Z,102177.76
2019-02-23T15:22:53.586Z,102171.67
2019-02-23T15:26:01.133Z,102170.75
2019-02-23T15:29:03.482Z,102164.97
2019-02-23T15:32:11.046Z,102165.89
2019-02-23T15:35:18.653Z,102162.28
2019-02-23T15:38:26.183Z,102167.92
2019-02-23T15:41:33.569Z,102167.41
2019-02-23T15:44:44.686Z,102163.73
2019-02-23T15:47:41.213Z,102168.36
2019-02-23T15:50:13.206Z,102167.81
2019-02-23T15:52:41.633Z,102168.11
2019-02-23T15:55:11.529Z,102167.31
2019-02-23T15:57:40.803Z,102177.59
2019-02-23T16:00:10.509Z,102179.06
2019-02-23T16:02:40.082Z,102171.48
2019-02-23T16:05:09.382Z,102173.62
2019-02-23T16:07:39.266Z,102174.32
2019-02-23T16:10:49.195Z,102171.89
2019-02-23T16:13:18.804Z,102175.10
2019-02-23T16:15:48.103Z,102164.56
2019-02-23T16:18:18.589Z,102160.64
2019-02-23T16:21:08.436Z,102158.06
2019-02-23T16:23:40.220Z,102157.14
2019-02-23T16:26:09.685Z,102157.58
2019-02-23T16:28:38.953Z,102164.22
2019-02-23T16:31:09.098Z,102168.22
2019-02-23T16:33:38.311Z,102171.52
2019-02-23T16:36:07.965Z,102167.17
2019-02-23T16:38:37.386Z,102176.80
2019-02-23T16:41:08.734Z,102166.61
2019-02-23T16:43:38.335Z,102162.86
2019-02-23T16:48:58.525Z,102165.02
2019-02-23T16:51:28.543Z,102161.94
2019-02-23T16:53:58.338Z,102162.73
2019-02-23T16:56:27.823Z,102164.22
2019-02-23T16:58:57.474Z,102163.39
2019-02-23T17:01:26.967Z,102159.17
2019-02-23T17:03:56.202Z,102153.29
2019-02-23T17:06:26.321Z,102158.17
2019-02-23T17:08:56.235Z,102160.97
2019-02-23T17:11:25.703Z,102161.07
2019-02-23T17:13:55.278Z,102153.94
2019-02-23T17:16:24.901Z,102152.41
2019-02-23T17:18:54.457Z,102154.08
2019-02-23T17:21:23.943Z,102150.08
2019-02-23T17:23:54.153Z,102142.36
2019-02-23T17:26:23.652Z,102153.14
2019-02-23T17:28:53.259Z,102148.81
2019-02-23T17:31:22.955Z,102149.91
2019-02-23T17:33:52.460Z,102143.48
2019-02-23T17:36:21.977Z,102150.42
2019-02-23T17:38:51.222Z,102145.09
2019-02-23T17:41:20.445Z,102142.27
2019-02-23T17:43:50.252Z,102138.11
2019-02-23T17:46:20.347Z,102134.56
2019-02-23T17:48:49.953Z,102132.89
2019-02-23T17:51:19.701Z,102138.28
2019-02-23T17:53:49.569Z,102133.90
2019-02-23T17:56:19.952Z,102134.40
2019-02-23T17:58:49.516Z,102129.06
2019-02-23T18:01:19.125Z,102125.20
2019-02-23T18:03:50.458Z,102119.53
2019-02-23T18:06:20.012Z,102109.61
2019-02-23T18:08:50.462Z,102101.23
2019-02-23T18:11:19.738Z,102107.97
2019-02-23T18:13:48.992Z,102111.16
2019-02-23T18:16:18.500Z,102103.77
2019-02-23T18:18:47.841Z,102103.11
2019-02-23T18:21:17.340Z,102101.11
2019-02-23T18:23:47.852Z,102087.83
2019-02-23T18:26:21.096Z,102094.21
2019-02-23T18:28:48.657Z,102087.32
2019-02-23T18:31:18.782Z,102086.85
2019-02-23T18:33:48.671Z,102082.47
2019-02-23T18:36:18.471Z,102086.00
2019-02-23T18:38:48.138Z,102084.31
2019-02-23T18:41:18.024Z,102081.63
2019-02-23T18:43:47.296Z,102085.66
2019-02-23T18:46:16.789Z,102077.75
2019-02-23T18:48:45.998Z,102087.98
2019-02-23T18:51:16.148Z,102093.22
2019-02-23T18:53:45.372Z,102100.44
2019-02-23T18:56:15.173Z,102097.40
2019-02-23T19:01:46.740Z,102099.06
2019-02-23T19:04:16.572Z,102104.75
2019-02-23T19:06:46.063Z,102097.86
2019-02-23T19:09:15.609Z,102108.06
2019-02-23T19:11:44.822Z,102100.36
2019-02-23T19:14:14.327Z,102108.72
2019-02-23T19:16:43.816Z,102097.63
2019-02-23T19:19:13.348Z,102096.63
2019-02-23T19:21:43.701Z,102098.29
2019-02-23T19:24:13.235Z,102096.28
2019-02-23T19:26:42.446Z,102101.46
2019-02-23T19:29:12.029Z,102100.30
2019-02-23T19:31:42.038Z,102093.89
2019-02-23T19:34:11.964Z,102104.92
2019-02-23T19:36:41.455Z,102106.44
2019-02-23T19:39:10.995Z,102103.08
2019-02-23T19:41:40.594Z,102107.25
2019-02-23T19:44:10.442Z,102103.94
2019-02-23T19:46:44.793Z,102106.44
2019-02-23T19:49:13.998Z,102095.34
2019-02-23T19:51:43.644Z,102107.23
2019-02-23T19:54:13.825Z,102104.91
2019-02-23T19:56:46.876Z,102106.56
2019-02-23T19:59:15.615Z,102108.92
2019-02-23T20:01:45.423Z,102116.49
2019-02-23T20:04:14.624Z,102123.52
2019-02-23T20:06:44.118Z,102130.77
2019-02-23T20:09:13.601Z,102136.14
2019-02-23T20:11:43.605Z,102137.63
2019-02-23T20:14:13.127Z,102139.98
2019-02-23T20:16:42.707Z,102136.06
2019-02-23T20:19:11.965Z,102140.08
2019-02-23T20:21:41.537Z,102141.08
2019-02-23T20:24:11.094Z,102139.10
2019-02-23T20:26:42.249Z,102140.27
2019-02-23T20:31:40.564Z,102138.77
2019-02-23T20:34:09.787Z,102138.45
2019-02-23T20:36:39.303Z,102139.94
2019-02-23T20:39:48.225Z,102137.59
2019-02-23T20:42:17.734Z,102138.27
2019-02-23T20:45:06.305Z,102142.13
2019-02-23T20:47:35.947Z,102143.14
2019-02-23T20:50:06.284Z,102142.47
2019-02-23T20:52:35.769Z,102139.41
2019-02-23T20:55:05.411Z,102137.71
2019-02-23T20:57:34.903Z,102136.55
2019-02-23T21:00:04.844Z,102147.39
2019-02-23T21:02:34.072Z,102147.73
2019-02-23T21:05:23.013Z,102148.06
2019-02-23T21:07:54.914Z,102155.13
2019-02-23T21:10:24.584Z,102153.59
2019-02-23T21:12:54.017Z,102159.27
2019-02-23T21:15:23.882Z,102155.05
2019-02-23T21:17:53.914Z,102156.38
2019-02-23T21:20:23.409Z,102151.84
2019-02-23T21:22:52.976Z,102147.80
2019-02-23T21:25:22.530Z,102150.12
2019-02-23T21:27:52.355Z,102148.45
2019-02-23T21:30:21.592Z,102140.91
2019-02-23T21:32:51.111Z,102144.08
2019-02-23T21:35:20.909Z,102139.86
2019-02-23T21:37:50.269Z,102141.82
2019-02-23T21:40:19.605Z,102137.80
2019-02-23T21:42:49.236Z,102140.21
2019-02-23T21:45:19.379Z,102137.45
2019-02-23T21:47:49.172Z,102131.25
2019-02-23T21:50:19.260Z,102129.72
2019-02-23T22:03:53.880Z,102135.24
2019-02-23T22:06:55.090Z,102145.30
2019-02-23T22:12:01.539Z,102134.45
2019-02-23T22:20:09.570Z,102142.37
2019-02-23T22:22:58.053Z,102148.39
2019-02-23T22:25:28.455Z,102146.86
2019-02-23T22:27:58.921Z,102146.70
2019-02-23T22:30:28.513Z,102153.27
2019-02-23T22:32:58.237Z,102153.56
2019-02-23T22:35:27.842Z,102153.67
2019-02-23T22:38:17.081Z,102157.37
2019-02-23T22:40:46.743Z,102163.02
2019-02-23T22:46:06.499Z,102159.44
2019-02-23T22:48:35.810Z,102158.27
2019-02-23T22:51:05.192Z,102160.61
2019-02-23T22:53:35.353Z,102160.31
2019-02-23T22:56:04.944Z,102158.95
2019-02-23T22:58:53.953Z,102158.59
2019-02-23T23:01:23.667Z,102157.25
2019-02-23T23:03:52.993Z,102158.06
2019-02-23T23:06:22.924Z,102158.06
2019-02-23T23:08:53.456Z,102155.87
2019-02-23T23:16:58.954Z,102149.15
2019-02-23T23:19:28.959Z,102149.02
2019-02-23T23:21:58.627Z,102147.42
2019-02-23T23:24:27.880Z,102148.08
2019-02-23T23:26:58.225Z,102136.28
2019-02-23T23:29:27.461Z,102135.40
2019-02-23T23:31:57.097Z,102134.92
2019-02-23T23:34:26.390Z,102132.72
2019-02-23T23:36:55.994Z,102119.70
2019-02-23T23:39:25.249Z,102121.08
2019-02-23T23:41:54.999Z,102111.84
2019-02-23T23:44:24.821Z,102114.19
2019-02-23T23:46:54.956Z,102101.55
2019-02-23T23:49:24.221Z,102111.92
2019-02-23T23:51:54.492Z,102106.00
2019-02-23T23:54:23.754Z,102102.48
2019-02-23T23:56:59.350Z,102102.31
2019-02-23T23:59:29.187Z,102096.96
